Time;durP1;ratioP1;P1;durP2;ratioP2;P2;SDS_P1;SDS_P2;PMS_P1;PMS_P2;Temp;Humidity;BMP_temperature;BMP_pressure;BME280_temperature;BME280_humidity;BME280_pressure;Samples;Min_cycle;Max_cycle;Signal;HPM_P1;HPM_P2
2022/09/04 00:01:36;;;;;;;5.70;4.28;;;19.60;84.90;;;;;;5029847;28;20025;-58
2022/09/04 00:04:36;;;;;;;6.70;4.28;;;19.50;85.80;;;;;;5030369;28;20041;-58
2022/09/04 00:07:11;;;;;;;4.78;4.18;;;19.50;86.10;;;;;;5030979;28;20028;-59
2022/09/04 00:10:10;;;;;;;4.88;4.20;;;19.40;86.80;;;;;;5031055;28;20477;-59
2022/09/04 00:13:02;;;;;;;5.38;4.60;;;19.50;87.10;;;;;;5029597;28;20029;-59
2022/09/04 00:15:33;;;;;;;4.35;3.95;;;19.40;87.40;;;;;;5030916;28;20048;-58
2022/09/04 00:18:06;;;;;;;5.38;4.65;;;19.40;88.20;;;;;;5030750;28;20413;-58
2022/09/04 00:20:42;;;;;;;4.75;4.00;;;19.40;88.20;;;;;;5030819;28;20022;-58
2022/09/04 00:23:28;;;;;;;5.63;4.43;;;19.40;88.30;;;;;;5029701;28;20025;-58
2022/09/04 00:26:16;;;;;;;4.80;4.10;;;19.40;88.20;;;;;;5029063;28;20098;-59
2022/09/04 00:28:48;;;;;;;7.13;4.00;;;19.30;88.30;;;;;;5030255;28;20081;-59
2022/09/04 00:31:25;;;;;;;3.92;3.35;;;19.30;88.80;;;;;;5030380;28;20049;-59
2022/09/04 00:33:59;;;;;;;3.92;3.40;;;19.30;88.70;;;;;;5029376;28;20025;-58
2022/09/04 00:36:26;;;;;;;4.13;3.00;;;19.30;88.60;;;;;;5008090;28;20048;-58
2022/09/04 00:39:08;;;;;;;4.85;3.60;;;19.30;88.30;;;;;;5030325;28;20104;-59
2022/09/04 00:42:11;;;;;;;5.53;4.47;;;19.40;88.20;;;;;;5028981;28;20104;-58
2022/09/04 00:44:57;;;;;;;4.18;3.40;;;19.40;88.70;;;;;;5030531;28;20163;-59
2022/09/04 00:47:38;;;;;;;3.55;2.72;;;19.30;88.90;;;;;;5030163;28;20572;-58
2022/09/04 00:50:15;;;;;;;5.63;2.60;;;19.30;88.50;;;;;;5030369;28;20678;-58
2022/09/04 00:53:08;;;;;;;4.43;2.88;;;19.40;88.10;;;;;;5030491;28;20029;-58
2022/09/04 00:56:05;;;;;;;2.63;2.38;;;19.40;87.60;;;;;;5028802;28;20386;-59
2022/09/04 00:58:50;;;;;;;3.03;2.72;;;19.50;87.40;;;;;;5028595;28;20048;-59
2022/09/04 01:01:22;;;;;;;2.53;2.28;;;19.50;87.10;;;;;;5029992;28;20108;-58
2022/09/04 01:04:08;;;;;;;2.88;2.38;;;19.50;87.10;;;;;;5028269;28;20108;-59
2022/09/04 01:07:02;;;;;;;3.63;2.38;;;19.50;86.90;;;;;;5028655;28;20439;-58
2022/09/04 01:09:43;;;;;;;2.83;2.13;;;19.50;86.80;;;;;;5026975;28;20136;-59
2022/09/04 01:12:38;;;;;;;2.50;2.30;;;19.50;86.60;;;;;;5029694;28;20040;-59
2022/09/04 01:15:18;;;;;;;5.80;2.38;;;19.50;86.50;;;;;;5028647;28;20153;-59
2022/09/04 01:18:11;;;;;;;4.50;2.60;;;19.50;86.50;;;;;;5029093;28;20026;-58
2022/09/04 01:21:05;;;;;;;3.97;3.58;;;19.40;86.30;;;;;;5029548;28;20033;-58
2022/09/04 01:23:59;;;;;;;4.03;2.30;;;19.40;86.30;;;;;;5028236;28;20069;-59
2022/09/04 01:26:42;;;;;;;3.50;2.50;;;19.40;86.30;;;;;;5026909;28;20416;-59
2022/09/04 01:29:33;;;;;;;2.55;2.35;;;19.40;86.50;;;;;;5027230;28;20029;-58
2022/09/04 01:32:36;;;;;;;2.78;2.30;;;19.30;86.60;;;;;;5028884;28;20108;-58
2022/09/04 01:35:13;;;;;;;3.35;2.40;;;19.30;86.50;;;;;;5028977;28;20116;-59
2022/09/04 01:37:56;;;;;;;3.20;2.80;;;19.20;86.60;;;;;;5028715;28;20113;-58
2022/09/04 01:40:37;;;;;;;3.05;2.33;;;19.20;86.70;;;;;;5043836;28;20018;-58
2022/09/04 01:43:17;;;;;;;3.55;2.47;;;19.20;86.80;;;;;;5029238;28;20576;-59
2022/09/04 01:46:23;;;;;;;2.90;2.60;;;19.20;87.00;;;;;;5028399;28;20370;-58
2022/09/04 01:49:02;;;;;;;4.28;2.75;;;19.20;87.00;;;;;;5026523;28;20075;-58
2022/09/04 01:51:41;;;;;;;3.78;2.63;;;19.10;87.20;;;;;;5027424;28;20088;-58
2022/09/04 01:54:11;;;;;;;4.40;2.92;;;19.10;87.20;;;;;;5029173;28;20112;-58
2022/09/04 01:56:47;;;;;;;5.15;2.95;;;19.10;87.30;;;;;;5027588;28;20405;-58
2022/09/04 01:59:18;;;;;;;3.95;2.85;;;19.10;87.40;;;;;;5042076;28;20492;-58
2022/09/04 02:02:09;;;;;;;3.20;2.90;;;19.10;87.40;;;;;;5011529;28;20022;-58
2022/09/04 02:05:03;;;;;;;3.80;2.95;;;19.10;87.30;;;;;;5028388;28;20124;-58
2022/09/04 02:07:46;;;;;;;3.30;2.88;;;19.00;87.70;;;;;;5025786;28;20040;-58
2022/09/04 02:10:33;;;;;;;3.85;3.35;;;19.00;87.90;;;;;;5016613;28;20029;-58
2022/09/04 02:13:21;;;;;;;3.42;2.97;;;19.00;88.00;;;;;;5027963;28;20021;-58
2022/09/04 02:16:01;;;;;;;4.30;3.22;;;18.90;88.10;;;;;;5026678;28;20040;-58
2022/09/04 02:19:07;;;;;;;3.70;3.35;;;18.90;88.20;;;;;;5028838;28;20021;-59
2022/09/04 02:21:59;;;;;;;4.55;3.78;;;18.90;88.40;;;;;;4993275;28;20041;-58
2022/09/04 02:24:36;;;;;;;5.82;3.97;;;18.90;88.50;;;;;;5027560;28;20061;-58
2022/09/04 02:27:06;;;;;;;4.60;3.72;;;18.80;88.70;;;;;;5028369;28;20024;-59
2022/09/04 02:29:52;;;;;;;4.57;3.72;;;18.80;88.90;;;;;;5027817;28;20551;-58
2022/09/04 02:32:24;;;;;;;4.32;3.78;;;18.80;88.90;;;;;;5042083;28;20034;-58
2022/09/04 02:34:57;;;;;;;4.28;3.83;;;18.80;89.20;;;;;;5026756;28;20370;-58
2022/09/04 02:37:43;;;;;;;5.50;3.92;;;18.80;89.30;;;;;;5028369;28;20478;-58
2022/09/04 02:40:36;;;;;;;6.95;6.15;;;18.80;89.50;;;;;;5028520;28;20446;-58
2022/09/04 02:43:05;;;;;;;5.93;4.60;;;18.70;90.40;;;;;;5028043;28;20029;-59
2022/09/04 02:45:51;;;;;;;4.88;4.38;;;18.50;90.50;;;;;;5028168;28;20021;-59
2022/09/04 02:48:47;;;;;;;4.70;4.22;;;18.50;90.50;;;;;;5027494;28;20560;-58
2022/09/04 02:51:44;;;;;;;5.20;4.03;;;18.50;90.50;;;;;;5027010;28;20033;-58
2022/09/04 02:54:31;;;;;;;5.85;4.28;;;18.50;90.50;;;;;;5028682;28;20026;-59
2022/09/04 02:57:20;;;;;;;6.65;4.47;;;18.40;90.50;;;;;;5028185;28;20112;-58
2022/09/04 03:03:17;;;;;;;8.60;7.72;;;18.40;90.80;;;;;;5028849;28;20026;-59
2022/09/04 03:05:52;;;;;;;9.25;8.05;;;18.30;91.50;;;;;;5018832;28;20021;-59
2022/09/04 03:08:22;;;;;;;10.98;9.20;;;18.20;92.40;;;;;;5028258;28;20029;-58
2022/09/04 03:11:24;;;;;;;9.73;8.73;;;18.10;93.00;;;;;;5028206;28;20021;-59
2022/09/04 03:14:06;;;;;;;11.63;9.25;;;18.10;93.30;;;;;;5005691;28;20757;-58
2022/09/04 03:16:54;;;;;;;10.65;9.65;;;18.00;93.70;;;;;;5026294;28;20060;-59
2022/09/04 03:19:42;;;;;;;9.30;8.40;;;18.00;94.10;;;;;;5028215;28;20071;-58
2022/09/04 03:22:49;;;;;;;11.83;10.60;;;18.00;94.20;;;;;;5026006;28;20021;-58
2022/09/04 03:25:47;;;;;;;12.43;10.77;;;17.90;94.60;;;;;;5026843;28;20109;-58
2022/09/04 03:28:24;;;;;;;11.27;9.75;;;17.80;95.10;;;;;;5026418;28;20022;-58
2022/09/04 03:30:51;;;;;;;11.55;10.35;;;17.80;95.50;;;;;;5025887;28;20394;-58
2022/09/04 03:33:30;;;;;;;11.57;10.48;;;17.70;95.80;;;;;;5028335;28;20056;-58
2022/09/04 03:36:01;;;;;;;11.95;10.75;;;17.70;96.00;;;;;;5026834;28;20029;-58
2022/09/04 03:38:40;;;;;;;12.90;11.52;;;17.70;96.30;;;;;;5027811;28;20025;-58
2022/09/04 03:41:36;;;;;;;12.70;11.45;;;17.60;96.50;;;;;;5029781;28;20021;-58
2022/09/04 03:44:21;;;;;;;13.55;12.15;;;17.60;96.60;;;;;;5016794;28;20622;-58
2022/09/04 03:46:50;;;;;;;13.88;12.20;;;17.60;97.00;;;;;;5029074;28;20057;-58
2022/09/04 03:49:37;;;;;;;15.45;12.85;;;17.50;97.40;;;;;;5031331;28;20430;-58
2022/09/04 03:52:26;;;;;;;15.65;13.63;;;17.50;97.80;;;;;;5031523;28;20075;-58
2022/09/04 03:55:04;;;;;;;14.63;12.70;;;17.40;98.10;;;;;;5031336;28;20049;-58
2022/09/04 03:57:35;;;;;;;13.60;12.20;;;17.40;98.30;;;;;;5029214;28;20026;-59
2022/09/04 04:00:10;;;;;;;14.38;12.98;;;17.30;98.50;;;;;;5031315;28;20029;-58
2022/09/04 04:02:44;;;;;;;16.00;13.07;;;17.30;98.70;;;;;;5031046;28;20446;-59
2022/09/04 04:05:35;;;;;;;13.88;12.48;;;17.30;98.90;;;;;;5031283;28;20075;-58
2022/09/04 04:08:26;;;;;;;14.70;13.07;;;17.30;98.80;;;;;;5029992;28;20022;-58
2022/09/04 04:11:19;;;;;;;15.77;13.38;;;17.30;99.00;;;;;;5029523;28;20026;-58
2022/09/04 04:14:12;;;;;;;14.13;12.73;;;17.30;99.00;;;;;;5030820;28;20104;-58
2022/09/04 04:17:06;;;;;;;14.63;12.25;;;17.20;99.30;;;;;;5030792;28;20566;-58
2022/09/04 04:19:52;;;;;;;12.25;10.50;;;17.20;99.20;;;;;;5029065;28;20402;-58
2022/09/04 04:22:46;;;;;;;12.98;11.32;;;17.20;99.30;;;;;;5030861;28;20037;-58
2022/09/04 04:25:58;;;;;;;13.70;11.82;;;17.20;99.20;;;;;;5025108;28;20152;-58
2022/09/04 04:28:55;;;;;;;16.10;14.20;;;17.30;99.10;;;;;;5030560;28;20104;-58
2022/09/04 04:32:09;;;;;;;11.63;10.52;;;17.20;99.30;;;;;;5030387;28;20050;-58
2022/09/04 04:34:52;;;;;;;14.32;12.88;;;17.20;99.20;;;;;;5029340;28;20045;-58
2022/09/04 04:37:30;;;;;;;13.80;12.23;;;17.10;99.60;;;;;;5029435;28;20075;-58
2022/09/04 04:40:16;;;;;;;14.82;12.38;;;17.10;99.70;;;;;;5029033;28;20025;-58
2022/09/04 04:43:12;;;;;;;13.35;11.55;;;17.10;99.70;;;;;;5007283;28;20457;-58
2022/09/04 04:45:48;;;;;;;12.77;11.35;;;17.10;99.90;;;;;;5024245;28;20315;-59
2022/09/04 04:48:48;;;;;;;12.73;11.45;;;17.10;99.90;;;;;;5026418;28;20028;-58
2022/09/04 04:51:40;;;;;;;12.65;11.00;;;17.10;99.80;;;;;;5017559;28;20044;-58
2022/09/04 04:54:18;;;;;;;10.55;9.50;;;17.10;99.70;;;;;;5033206;28;20100;-58
2022/09/04 04:56:55;;;;;;;15.35;11.93;;;17.10;99.60;;;;;;5032433;28;20561;-58
2022/09/04 04:59:43;;;;;;;12.15;10.85;;;17.10;99.60;;;;;;5033823;28;20021;-58
2022/09/04 05:02:15;;;;;;;11.57;10.05;;;17.20;99.40;;;;;;5033430;28;20022;-58
2022/09/04 05:05:01;;;;;;;14.20;12.68;;;17.10;99.50;;;;;;5033681;28;20029;-58
2022/09/04 05:07:40;;;;;;;13.45;12.07;;;17.10;99.60;;;;;;5031806;28;20027;-58
2022/09/04 05:10:31;;;;;;;14.60;12.87;;;17.10;99.70;;;;;;5032594;28;20032;-58
2022/09/04 05:12:59;;;;;;;13.18;11.77;;;17.10;99.90;;;;;;5022611;28;20295;-58
2022/09/04 05:15:31;;;;;;;15.05;13.45;;;17.00;99.90;;;;;;5033654;28;20477;-58
2022/09/04 05:18:10;;;;;;;13.25;11.10;;;17.00;99.90;;;;;;5033353;28;20033;-58
2022/09/04 05:20:42;;;;;;;13.80;12.25;;;17.10;99.90;;;;;;5033029;28;20030;-58
2022/09/04 05:23:13;;;;;;;13.65;12.25;;;17.10;99.90;;;;;;5033492;28;20041;-58
2022/09/04 05:25:52;;;;;;;12.02;10.57;;;17.00;99.90;;;;;;5018867;28;20013;-58
2022/09/04 05:28:42;;;;;;;13.40;11.60;;;17.10;99.90;;;;;;5033406;28;20014;-58
2022/09/04 05:31:28;;;;;;;14.75;12.50;;;17.10;99.90;;;;;;5032468;28;20199;-58
2022/09/04 05:34:25;;;;;;;15.65;12.88;;;17.10;99.90;;;;;;5033127;28;20065;-58
2022/09/04 05:36:59;;;;;;;16.67;14.20;;;17.10;99.90;;;;;;5021650;28;20486;-58
2022/09/04 05:39:29;;;;;;;14.75;13.15;;;17.10;99.90;;;;;;5020878;28;20037;-58
2022/09/04 05:42:00;;;;;;;14.38;12.38;;;17.10;99.90;;;;;;5031748;28;20032;-58
2022/09/04 05:45:05;;;;;;;14.02;12.52;;;17.00;99.90;;;;;;5033089;28;20033;-58
2022/09/04 05:47:52;;;;;;;15.88;14.27;;;17.10;99.90;;;;;;5019858;28;20029;-59
2022/09/04 05:50:49;;;;;;;17.30;14.55;;;17.10;99.90;;;;;;5030077;28;20056;-58
2022/09/04 05:53:39;;;;;;;15.63;13.50;;;17.00;99.90;;;;;;5029647;28;20025;-58
2022/09/04 05:56:32;;;;;;;15.02;12.95;;;17.10;99.90;;;;;;5029952;28;20017;-58
2022/09/04 05:59:20;;;;;;;15.05;12.90;;;17.10;99.90;;;;;;5034315;28;20029;-58
2022/09/04 06:02:11;;;;;;;16.85;14.75;;;17.10;99.90;;;;;;5026463;28;20041;-58
2022/09/04 06:05:01;;;;;;;16.23;14.35;;;17.20;99.90;;;;;;5031150;28;20040;-58
2022/09/04 06:07:37;;;;;;;15.57;13.98;;;17.20;99.90;;;;;;5032286;28;20021;-58
2022/09/04 06:10:21;;;;;;;14.65;13.07;;;17.20;99.90;;;;;;5032569;28;20021;-58
2022/09/04 06:12:58;;;;;;;15.45;13.18;;;17.20;99.90;;;;;;5023472;28;20025;-58
2022/09/04 06:15:57;;;;;;;15.55;13.80;;;17.20;99.90;;;;;;5032218;28;20108;-58
2022/09/04 06:18:56;;;;;;;18.05;14.05;;;17.30;99.90;;;;;;5030834;28;20470;-58
2022/09/04 06:21:30;;;;;;;17.65;15.48;;;17.40;99.90;;;;;;5027547;28;20030;-58
2022/09/04 06:24:13;;;;;;;18.30;15.23;;;17.30;99.90;;;;;;5030769;28;20358;-58
2022/09/04 06:27:01;;;;;;;18.08;15.98;;;17.40;99.90;;;;;;5032397;28;20104;-57
2022/09/04 06:29:51;;;;;;;18.42;14.23;;;17.40;99.90;;;;;;5031106;28;20037;-58
2022/09/04 06:32:52;;;;;;;17.45;14.95;;;17.40;99.90;;;;;;5025087;28;20099;-58
2022/09/04 06:35:36;;;;;;;15.85;13.65;;;17.40;99.90;;;;;;5027480;28;20060;-58
2022/09/04 06:38:11;;;;;;;15.27;13.68;;;17.40;99.90;;;;;;5030914;28;20018;-58
2022/09/04 06:41:09;;;;;;;16.75;14.93;;;17.50;99.90;;;;;;5029097;28;20029;-58
2022/09/04 06:43:51;;;;;;;17.65;15.20;;;17.60;99.90;;;;;;5031100;28;20024;-59
2022/09/04 06:46:28;;;;;;;16.92;14.93;;;17.60;99.90;;;;;;5028597;28;20045;-58
2022/09/04 06:49:08;;;;;;;17.58;14.90;;;17.60;99.90;;;;;;5030764;28;20065;-58
2022/09/04 06:51:52;;;;;;;17.98;15.25;;;17.70;99.90;;;;;;5028589;28;20029;-58
2022/09/04 06:54:47;;;;;;;20.33;15.45;;;17.80;99.90;;;;;;5030385;28;20030;-58
2022/09/04 06:57:45;;;;;;;19.30;16.83;;;17.80;99.90;;;;;;5030598;28;20018;-57
2022/09/04 07:00:20;;;;;;;18.95;15.50;;;17.90;99.90;;;;;;5027760;28;20013;-58
2022/09/04 07:03:43;;;;;;;18.85;16.25;;;17.90;99.90;;;;;;5030716;28;20028;-58
2022/09/04 07:06:22;;;;;;;21.67;16.38;;;18.00;99.90;;;;;;5007377;28;20050;-58
2022/09/04 07:09:05;;;;;;;16.25;14.55;;;18.00;99.90;;;;;;5030234;28;20017;-58
2022/09/04 07:11:45;;;;;;;18.55;16.65;;;18.00;99.90;;;;;;5027678;28;20401;-58
2022/09/04 07:14:39;;;;;;;17.00;15.30;;;18.10;99.90;;;;;;5032182;28;20033;-58
2022/09/04 07:17:22;;;;;;;16.15;13.88;;;18.20;99.90;;;;;;5034987;28;20037;-58
2022/09/04 07:20:15;;;;;;;16.55;14.93;;;18.30;99.90;;;;;;5033481;28;20034;-58
2022/09/04 07:23:16;;;;;;;16.83;15.02;;;18.40;99.90;;;;;;5034361;28;20029;-59
2022/09/04 07:25:55;;;;;;;15.95;14.25;;;18.40;99.90;;;;;;5033188;28;20104;-58
2022/09/04 07:28:37;;;;;;;16.60;14.90;;;18.50;99.90;;;;;;5035546;28;20025;-58
2022/09/04 07:31:12;;;;;;;16.10;14.40;;;18.50;99.90;;;;;;5033115;28;20050;-58
2022/09/04 07:34:18;;;;;;;15.15;13.55;;;18.70;99.80;;;;;;5035524;28;20033;-57
2022/09/04 07:37:03;;;;;;;16.05;14.35;;;18.80;99.40;;;;;;5012379;28;20033;-58
2022/09/04 07:40:04;;;;;;;19.10;15.48;;;18.90;99.40;;;;;;5034920;28;20018;-58
2022/09/04 07:42:44;;;;;;;17.00;15.25;;;19.00;99.10;;;;;;5035211;28;20032;-59
2022/09/04 07:45:21;;;;;;;14.13;12.68;;;19.10;99.00;;;;;;5035197;28;20018;-58
2022/09/04 07:48:04;;;;;;;17.88;15.40;;;19.20;98.70;;;;;;5032387;28;20014;-58
2022/09/04 07:51:02;;;;;;;16.08;14.13;;;19.30;98.60;;;;;;5032008;28;20034;-58
2022/09/04 07:53:57;;;;;;;15.85;14.27;;;19.40;98.20;;;;;;5034960;28;20082;-59
2022/09/04 07:56:46;;;;;;;18.70;12.80;;;19.50;98.00;;;;;;5034775;28;20108;-58
2022/09/04 07:59:25;;;;;;;;;;;19.60;97.80;;;;;;5034734;28;20033;-58
2022/09/04 08:02:15;;;;;;;15.95;14.27;;;19.70;97.80;;;;;;5033269;28;19909;-61
2022/09/04 08:04:59;;;;;;;15.02;13.23;;;19.80;97.80;;;;;;5032770;28;20025;-58
2022/09/04 08:07:52;;;;;;;16.38;14.35;;;19.90;97.50;;;;;;5032611;28;20030;-58
2022/09/04 08:10:30;;;;;;;15.02;13.52;;;20.10;97.20;;;;;;5032070;28;20033;-58
2022/09/04 08:13:32;;;;;;;16.17;13.77;;;20.20;96.90;;;;;;5033211;28;20018;-58
2022/09/04 08:16:17;;;;;;;15.05;13.23;;;20.30;96.60;;;;;;5033089;28;20017;-59
2022/09/04 08:19:22;;;;;;;14.90;13.50;;;20.40;96.20;;;;;;5032300;28;20079;-58
2022/09/04 08:21:48;;;;;;;14.77;13.27;;;20.50;95.90;;;;;;5029588;28;20033;-58
2022/09/04 08:24:49;;;;;;;15.25;13.50;;;20.60;95.80;;;;;;5031462;28;20033;-58
2022/09/04 08:27:17;;;;;;;19.85;14.65;;;20.80;95.50;;;;;;5031123;28;20022;-58
2022/09/04 08:30:06;;;;;;;14.80;13.20;;;20.80;95.20;;;;;;5032623;28;20045;-58
2022/09/04 08:32:50;;;;;;;15.63;13.73;;;21.00;94.70;;;;;;5032460;28;20036;-58
2022/09/04 08:35:40;;;;;;;13.90;11.63;;;21.10;94.40;;;;;;5026819;28;20068;-59
2022/09/04 08:38:27;;;;;;;16.13;13.75;;;21.20;94.30;;;;;;5032506;28;20017;-58
2022/09/04 08:40:53;;;;;;;14.32;12.85;;;21.30;94.00;;;;;;5030799;28;20021;-58
2022/09/04 08:43:43;;;;;;;14.15;12.65;;;21.50;93.70;;;;;;5032551;28;20044;-58
2022/09/04 08:46:14;;;;;;;13.68;12.27;;;21.60;93.40;;;;;;5032595;28;20021;-58
2022/09/04 08:49:12;;;;;;;15.48;13.45;;;21.70;93.30;;;;;;5032408;28;20024;-58
2022/09/04 08:51:59;;;;;;;14.18;12.68;;;21.80;93.00;;;;;;5032453;28;20022;-58
2022/09/04 08:54:37;;;;;;;13.18;11.27;;;22.00;92.70;;;;;;5048011;28;20030;-58
2022/09/04 08:57:12;;;;;;;14.15;12.75;;;22.00;92.30;;;;;;5032841;28;20057;-58
2022/09/04 08:59:43;;;;;;;13.35;11.98;;;22.10;92.30;;;;;;5032327;28;20057;-58
2022/09/04 09:02:29;;;;;;;14.60;12.10;;;22.30;91.90;;;;;;5030836;28;20374;-58
2022/09/04 09:04:58;;;;;;;11.73;10.50;;;22.40;91.50;;;;;;5032119;28;20028;-58
2022/09/04 09:07:49;;;;;;;14.82;13.32;;;22.50;91.50;;;;;;5029464;28;20022;-58
2022/09/04 09:10:37;;;;;;;14.77;13.20;;;22.60;91.00;;;;;;5033808;28;20496;-58
2022/09/04 09:13:16;;;;;;;16.15;11.18;;;22.70;90.20;;;;;;5023316;28;20033;-59
2022/09/04 09:16:01;;;;;;;;;;;22.80;90.00;;;;;;5033523;28;20021;-58
2022/09/04 09:18:30;;;;;;;12.45;11.15;;;22.80;90.10;;;;;;5033593;28;19913;-59
2022/09/04 09:21:06;;;;;;;13.70;11.32;;;22.90;90.00;;;;;;5033134;28;20022;-58
2022/09/04 09:24:10;;;;;;;15.32;10.40;;;23.10;89.60;;;;;;5031657;28;20029;-58
2022/09/04 09:27:05;;;;;;;10.55;9.52;;;23.20;89.10;;;;;;5033106;28;20427;-58
2022/09/04 09:29:43;;;;;;;12.48;11.10;;;23.40;88.20;;;;;;4995296;28;20030;-59
2022/09/04 09:32:33;;;;;;;11.07;9.82;;;23.50;87.00;;;;;;5031018;28;20017;-59
2022/09/04 09:35:07;;;;;;;;;;;23.50;86.70;;;;;;5031298;28;20018;-58
2022/09/04 09:38:12;;;;;;;11.38;9.80;;;23.60;86.60;;;;;;5030327;28;20281;-59
2022/09/04 09:41:08;;;;;;;13.60;9.70;;;23.70;85.50;;;;;;5033090;28;20474;-58
2022/09/04 09:43:55;;;;;;;10.75;9.63;;;23.80;85.00;;;;;;5022236;28;20505;-58
2022/09/04 09:46:39;;;;;;;10.02;9.13;;;23.90;84.00;;;;;;5032877;28;20060;-58
2022/09/04 09:49:49;;;;;;;8.95;5.60;;;24.10;83.90;;;;;;5032746;28;20504;-58
2022/09/04 09:52:29;;;;;;;11.57;10.15;;;24.30;84.20;;;;;;5026557;28;20041;-59
2022/09/04 09:54:58;;;;;;;8.32;6.88;;;24.30;81.90;;;;;;5031248;28;20034;-58
2022/09/04 09:57:45;;;;;;;7.27;6.50;;;24.50;81.80;;;;;;5032533;28;20421;-58
2022/09/04 10:00:14;;;;;;;7.47;5.55;;;24.60;81.10;;;;;;5032833;28;20394;-58
2022/09/04 10:03:07;;;;;;;7.97;6.40;;;24.70;80.30;;;;;;5029160;28;20416;-58
2022/09/04 10:05:51;;;;;;;8.57;5.80;;;24.90;79.60;;;;;;5032471;28;20018;-58
2022/09/04 10:08:45;;;;;;;6.95;5.97;;;25.10;79.00;;;;;;5032582;28;20547;-58
2022/09/04 10:11:32;;;;;;;7.88;5.20;;;25.30;78.20;;;;;;5032869;28;20116;-59
2022/09/04 10:14:03;;;;;;;7.00;5.25;;;25.40;77.20;;;;;;5032865;28;20112;-59
2022/09/04 10:16:41;;;;;;;7.60;6.13;;;25.60;75.80;;;;;;5032341;28;20033;-58
2022/09/04 10:19:10;;;;;;;8.75;5.82;;;25.70;74.90;;;;;;5024599;28;20018;-59
2022/09/04 10:22:00;;;;;;;8.15;6.75;;;25.90;74.40;;;;;;5026392;28;20052;-59
2022/09/04 10:25:00;;;;;;;5.55;4.65;;;26.00;72.90;;;;;;5032444;28;20097;-58
2022/09/04 10:28:03;;;;;;;6.00;4.60;;;26.10;71.90;;;;;;5021710;28;20557;-59
2022/09/04 10:30:54;;;;;;;7.03;5.72;;;26.30;71.90;;;;;;5019919;28;20129;-59
2022/09/04 10:33:25;;;;;;;5.05;4.55;;;26.50;70.50;;;;;;5031900;28;20055;-58
2022/09/04 10:36:03;;;;;;;6.38;4.65;;;26.60;69.70;;;;;;5031302;28;20116;-58
2022/09/04 10:41:46;;;;;;;4.65;3.85;;;26.90;67.50;;;;;;5029632;28;20045;-58
2022/09/04 10:44:34;;;;;;;4.28;3.15;;;27.00;67.30;;;;;;5030584;28;20021;-59
2022/09/04 10:47:17;;;;;;;4.22;3.33;;;27.30;67.40;;;;;;5030090;28;20528;-58
2022/09/04 10:50:00;;;;;;;4.35;3.67;;;27.70;67.00;;;;;;5031012;28;20481;-59
2022/09/04 10:52:41;;;;;;;6.22;3.22;;;28.00;65.80;;;;;;5030983;28;20013;-59
2022/09/04 10:55:17;;;;;;;3.03;1.65;;;28.30;63.20;;;;;;5035719;28;20096;-59
2022/09/04 10:58:10;;;;;;;3.90;2.25;;;29.00;63.90;;;;;;5034787;28;20105;-59
2022/09/04 11:01:11;;;;;;;2.75;1.90;;;29.90;60.30;;;;;;5036149;28;20033;-59
2022/09/04 11:03:49;;;;;;;4.15;3.17;;;30.20;59.70;;;;;;5035494;28;20014;-58
2022/09/04 11:06:35;;;;;;;5.30;4.07;;;30.20;58.50;;;;;;5035891;28;20515;-59
2022/09/04 11:09:30;;;;;;;3.88;2.75;;;30.30;57.10;;;;;;5015282;28;20088;-59
2022/09/04 11:12:24;;;;;;;3.45;3.10;;;29.80;58.00;;;;;;5024767;28;20135;-59
2022/09/04 11:15:02;;;;;;;3.85;3.15;;;29.40;58.00;;;;;;5032494;28;20029;-59
2022/09/04 11:18:07;;;;;;;4.20;2.97;;;28.90;58.60;;;;;;5031674;28;20481;-59
2022/09/04 11:21:07;;;;;;;3.13;2.28;;;28.60;59.90;;;;;;5034251;28;20036;-59
2022/09/04 11:23:35;;;;;;;3.90;1.40;;;28.40;60.70;;;;;;5033255;28;20010;-58
2022/09/04 11:26:21;;;;;;;1.83;1.50;;;28.10;60.00;;;;;;5033933;28;20053;-59
2022/09/04 11:29:17;;;;;;;2.55;1.50;;;28.20;60.40;;;;;;5034283;28;20585;-59
2022/09/04 11:32:01;;;;;;;2.45;1.60;;;28.50;60.40;;;;;;5034277;28;20468;-59
2022/09/04 11:35:08;;;;;;;2.40;1.33;;;28.80;60.30;;;;;;5031525;28;20091;-59
2022/09/04 11:37:37;;;;;;;3.60;1.70;;;28.70;59.10;;;;;;5032804;28;20487;-60
2022/09/04 11:40:26;;;;;;;1.63;0.80;;;28.50;59.70;;;;;;5030973;28;20112;-58
2022/09/04 11:43:07;;;;;;;2.17;1.58;;;28.60;59.70;;;;;;5032054;28;20503;-59
2022/09/04 11:45:41;;;;;;;3.15;1.20;;;28.50;57.90;;;;;;5031474;28;20057;-58
2022/09/04 11:48:36;;;;;;;1.95;0.75;;;29.20;57.20;;;;;;5028012;28;20018;-59
2022/09/04 11:51:16;;;;;;;3.70;1.25;;;29.00;56.70;;;;;;5030252;28;20036;-59
2022/09/04 11:54:12;;;;;;;1.98;1.42;;;28.90;57.00;;;;;;5033314;28;20071;-59
2022/09/04 11:57:08;;;;;;;1.75;1.00;;;29.60;56.50;;;;;;5033120;28;20167;-59
2022/09/04 12:00:05;;;;;;;2.22;0.95;;;29.80;55.70;;;;;;5032616;28;20079;-59
2022/09/04 12:03:05;;;;;;;1.95;1.27;;;29.50;55.80;;;;;;5031474;28;20355;-59
2022/09/04 12:05:53;;;;;;;1.13;0.80;;;29.20;56.00;;;;;;5013594;28;20018;-59
2022/09/04 12:08:38;;;;;;;2.10;1.17;;;29.10;56.80;;;;;;5031852;28;20030;-59
2022/09/04 12:11:03;;;;;;;1.92;0.98;;;29.80;56.00;;;;;;5031170;28;20147;-59
2022/09/04 12:13:51;;;;;;;1.90;1.27;;;30.60;54.70;;;;;;5032243;28;20112;-59
2022/09/04 12:16:25;;;;;;;2.53;1.20;;;31.10;53.80;;;;;;5031779;28;20025;-59
2022/09/04 12:19:07;;;;;;;0.70;0.70;;;30.90;52.80;;;;;;5031356;28;20018;-59
2022/09/04 12:22:06;;;;;;;1.42;0.60;;;31.10;51.30;;;;;;5031206;28;20076;-59
2022/09/04 12:25:04;;;;;;;1.63;0.70;;;31.10;51.00;;;;;;5023405;28;20092;-59
2022/09/04 12:27:56;;;;;;;1.77;0.68;;;32.10;51.10;;;;;;5018632;28;20044;-59
2022/09/04 12:30:47;;;;;;;1.20;0.63;;;32.40;50.30;;;;;;5029477;28;20041;-59
2022/09/04 12:33:18;;;;;;;1.25;0.75;;;32.60;48.40;;;;;;5031477;28;20056;-59
2022/09/04 12:36:05;;;;;;;0.80;0.70;;;32.70;48.60;;;;;;5031367;28;20021;-59
2022/09/04 12:38:45;;;;;;;2.65;0.70;;;32.60;47.60;;;;;;5030980;28;20022;-59
2022/09/04 12:41:22;;;;;;;1.20;0.70;;;31.80;48.20;;;;;;5030957;28;20025;-60
2022/09/04 12:44:02;;;;;;;2.25;0.70;;;31.30;49.30;;;;;;5031157;28;20057;-59
2022/09/04 12:46:47;;;;;;;0.80;0.68;;;31.30;49.80;;;;;;5030801;28;20029;-59
2022/09/04 12:49:25;;;;;;;0.93;0.60;;;31.50;50.10;;;;;;5030540;28;20037;-59
2022/09/04 12:51:57;;;;;;;2.60;0.70;;;31.60;48.80;;;;;;5028809;28;20032;-59
2022/09/04 12:54:32;;;;;;;2.53;0.98;;;31.50;48.00;;;;;;5030012;28;20112;-60
2022/09/04 12:57:29;;;;;;;1.35;0.95;;;31.40;48.50;;;;;;5029509;28;20025;-59
2022/09/04 13:00:11;;;;;;;0.85;0.70;;;30.80;49.20;;;;;;5029449;28;20633;-59
2022/09/04 13:02:52;;;;;;;1.15;0.60;;;30.60;49.70;;;;;;5030220;28;20473;-59
2022/09/04 13:05:32;;;;;;;1.13;0.65;;;30.80;49.60;;;;;;5024786;28;20052;-59
2022/09/04 13:08:24;;;;;;;1.08;0.75;;;31.20;49.10;;;;;;5029464;28;20076;-59
2022/09/04 13:10:59;;;;;;;2.00;0.80;;;31.20;48.70;;;;;;5029264;28;20037;-59
2022/09/04 13:13:50;;;;;;;2.15;0.70;;;31.20;48.70;;;;;;5028662;28;20401;-59
2022/09/04 13:16:30;;;;;;;1.08;0.90;;;31.40;48.30;;;;;;5028040;28;20029;-59
2022/09/04 13:18:57;;;;;;;0.80;0.70;;;31.70;48.30;;;;;;5030603;28;20518;-59
2022/09/04 13:21:50;;;;;;;1.15;0.63;;;32.00;47.90;;;;;;5030311;28;20477;-59
2022/09/04 13:24:34;;;;;;;1.38;0.60;;;32.20;47.10;;;;;;5027105;28;20024;-59
2022/09/04 13:27:33;;;;;;;0.75;0.60;;;32.40;47.40;;;;;;5030285;28;20367;-59
2022/09/04 13:30:06;;;;;;;0.80;0.73;;;32.70;46.80;;;;;;5024786;28;20136;-59
2022/09/04 13:32:45;;;;;;;2.08;1.10;;;32.80;46.30;;;;;;5027854;28;20045;-59
2022/09/04 13:35:38;;;;;;;4.13;0.90;;;32.40;45.40;;;;;;5026174;28;20037;-59
2022/09/04 13:38:34;;;;;;;0.95;0.70;;;32.20;45.90;;;;;;5029025;28;20048;-59
2022/09/04 13:41:37;;;;;;;1.30;0.80;;;32.50;46.20;;;;;;5027937;28;20060;-59
2022/09/04 13:44:37;;;;;;;1.30;0.80;;;32.70;45.80;;;;;;5027803;28;20508;-59
2022/09/04 13:47:02;;;;;;;1.48;0.80;;;32.80;45.00;;;;;;5027985;28;20100;-59
2022/09/04 13:49:36;;;;;;;2.42;1.10;;;32.70;45.10;;;;;;5028352;28;20026;-59
2022/09/04 13:52:10;;;;;;;3.35;0.90;;;32.60;44.00;;;;;;5028584;28;20057;-59
2022/09/04 13:54:42;;;;;;;1.30;1.10;;;32.30;44.40;;;;;;5014080;28;20376;-59
2022/09/04 13:57:28;;;;;;;2.83;1.02;;;31.90;44.80;;;;;;5028150;28;20071;-59
2022/09/04 13:59:58;;;;;;;1.80;0.98;;;31.60;45.40;;;;;;5028490;28;20029;-59
2022/09/04 14:02:26;;;;;;;2.20;0.93;;;31.70;45.60;;;;;;5028376;28;20053;-59
2022/09/04 14:04:56;;;;;;;1.27;0.75;;;31.90;45.60;;;;;;5026248;28;20104;-59
2022/09/04 14:07:30;;;;;;;1.50;1.10;;;32.30;45.20;;;;;;5028307;28;20026;-59
2022/09/04 14:09:58;;;;;;;2.00;1.20;;;32.40;44.10;;;;;;5022350;28;20389;-59
2022/09/04 14:12:34;;;;;;;1.85;1.10;;;32.10;44.10;;;;;;5013589;28;20057;-59
2022/09/04 14:15:18;;;;;;;2.10;1.30;;;31.90;44.10;;;;;;5028428;28;20374;-59